Ana Sayfa
METAR-TAF:

METAR-TAF

Havaalanları :

İncirlik Hava Üssü

İncirlik, Türkiye

Enlem: 37-00N, Boylam: 035-25E, yükseklik: 73 m

Güncel hava durumu gözlemi

Rapor saat 21:50 UTC de 28 dakika önce yapıldı.
Rüzgar kuzeydan 6 kt
Sıcaklık 9°C
Nem 93%
Basınç 1010 hPa
Görüş mesafesi 10 km veya daha fazla
3500 ft yükseklikte parçalı bulutlu
10000 ft yükseklikte parçalı çok bulutlu

METAR: LTAG 202150Z 01006KT 9999 SCT035 BKN100 09/08 Q1010 NOSIG

Saat: 01:18 (22:18 UTC)

Tahmin

Rapor saat 16:40 UTC de 5 saat ve 38 dakika önce yapıldı.
Ayın 20'si saat 18 UTC'den ayın 21'si saat 18 UTC'ye kadar geçerli Tahmin
Rüzgar kuzey/kuzeydoğudan 8 kt
Görüş mesafesi 10 km veya daha fazla
3500 ft yükseklikte parçalı bulutlu
10000 ft yükseklikte parçalı çok bulutlu
Geçici
ayın 21'si saat 09 UTC'den ayın 21'si saat 12 UTC'ye kadar
Rüzgar güney/güneybatıdan 12 kt
hafif sağanak yağmurlar

TAF: LTAG 201640Z 2018/2118 03008KT 9999 SCT035 BKN100 TEMPO 2109/2112 21012KT -SHRA

4.000'den fazla havaalanı için hava durumu gözlemleri ve tahminleri (METAR ve TAF raporları).

Kullanılabilir istasyonlar harita üzerinde sarı ve kırmızı noktalarla gösterilir.

İstasyonun adını görmek için fareyi noktanın üzerinde gezdirin.

Sonrasında hava gözlem ve tahminlerini görmek için tıklayın.

Haritayı değiştirmek için: yaklaştırmak için siyah artı işaretli yeşil düğmeye ve uzaklaştırmak için de eksi işaretli düğmeye hızla tıklayın; bitişik haritalar için yeşil okları kullanın.


METAR-TAF: